Ciudad Obregon, Mexico

9:07 PM MST on December 03, 2016 (GMT -0700)
Ciudad Obregon International | | Change Station

Elev 203 ft 27.39 °N, 109.83 °W | Updated 2 hours ago

Partly Cloudy
Partly Cloudy
54 °F
Feels Like 54 °F
N
5
Wind Variable Wind from WNW

Today
High -- | Low -- °F
--% Chance of Precip.
Yesterday
High -- | Low -- °F
Precip. -- in
Pressure 29.86 in
Visibility 10.0 miles
Clouds Few 10000 ft
Dew Point 46 °F
Humidity 77%
Rainfall 0.00 in
Snow Depth Not available.
6:54 AM 5:24 PM
Waxing Crescent, 19% visible
METAR MMCN 040140Z 29004KT 10SM FEW100 12/08 A2986 RMK 8/030 DSNT TCU SW AND NW
Pressure 29.86 in
Visibility 10.0 miles
Clouds Few 10000 ft
Dew Point 46 °F
Humidity 77%
Rainfall 0.00 in
Snow Depth Not available.
6:54 AM 5:24 PM
Waxing Crescent, 19% visible
METAR MMCN 040140Z 29004KT 10SM FEW100 12/08 A2986 RMK 8/030 DSNT TCU SW AND NW

10-Day Weather Forecast

No radar image for this location.
×

Almanac

Astronomy

Dec. 03, 2016 Rise Set
Actual Time
Civil Twilight
Nautical Twilight
Astronomical Twilight
Moon
Length of Visible Light
Length of Day
Tomorrow will be .
, % of the Moon is Illuminated

Today's Extremes

Country Highs Country Lows

Community

WunderPhotos

Upload Photos

1,955,573 photos uploaded!

WunderBlog® & News

Nearby

Air Quality

  Air Quality AQ Index Pollutant
Not available.

Snow Depth

Station Depth Elevation

Earthquake Activity

City Distance Mag. Time & Date
Minimum magnitude displayed is 2.5.

Coastal Water Temperatures

Place Temperature

Stations

Nearby Weather Stations

Station Location Temp. Windchill Dew Point Humidity Wind Precip. Elev Updated Type